Sioux Lookout Airport
CYXL : now visible

Airfield :











YOU CAN JOIN US ON...

 
LOGIN :

Register | Disclaimer

   EN    FR    IT 

 









Legend :    VFR   Marginal VFR   IFR   Intensive IFR   Very Intensive IFR
Visi :
Ceiling :
>= 8 km
>= 3000ft
5 to 8 km
1000 to 3000 ft
1500m to 5 km
500 to 1000 ft
800 to 1500m
200 to 500 ft
< 800m
< 200 ft
Symbols :   Thunderstorms  Fog  Heavy snow  Heavy precipitations  Wind > 20 kt







- Airport Elevation : 1258 ft
- IATA code : YXL


CYXL - Sioux Lookout

CURRENT METAR :
  • 210400Z 17012G20KT 15SM SCT160 17/16 A2988 RMK AC3 SLP126 DENSITY ALT 1900FT

EXPIRED METARs :
  • 210300Z 16009G19KT 15SM BKN170 18/16 A2988 RMK AC5 SLP125 DENSITY ALT 1900FT
  • 210200Z 15009G16KT 130V190 15SM BKN160 18/16 A2990 RMK AC6 SLP134 DENSITY ALT 2000FT

TAF TAF CYXL
Valid from the 21 at 02:00 until the 21 at 14:00 UTC


210138Z 2102/2114 16005KT P6SM SCT050 BKN150
TEMPO 2102/2104 6SM -SHRA BR BKN050
FM210400 17008KT P6SM BKN040
TEMPO 2104/2112 BKN020
FM211200 18012G22KT 5SM -SHRA BR SCT020 BKN030
PROB40 2112/2114 VRB30G45KT 2SM TSRA BR BKN010 OVC040CB RMK NXT FCST BY 210800Z
No reported NOTAMs for that airfield.



MET'MAP, your aeronautical weather chart ! - Copyright ORBIFLY December 2007 - Disclaimer

ORBIFLY MET'MAP TEAM :

Programming & Development : Alexandra Zaïnal
Concept & Development : Baudouin d'Aumeries
Co-Development & Prog : Marc-Olivier Méhu
Technical & hardware support : Manuel Goepfert

Contact : metmap@orbifly.com




SOURCES & CREDITS :

   NOAA       Earth
Advisory